createdAt,value
2023-03-30T00:00:57.105Z,19.93
2023-03-30T00:03:24.326Z,17.47
2023-03-30T00:05:52.093Z,17.90
2023-03-30T00:08:19.379Z,17.03
2023-03-30T00:10:47.847Z,16.53
2023-03-30T00:13:15.112Z,17.13
2023-03-30T00:15:42.037Z,20.40
2023-03-30T00:18:09.346Z,19.43
2023-03-30T00:20:37.871Z,15.80
2023-03-30T00:23:04.972Z,15.93
2023-03-30T00:25:31.775Z,17.50
2023-03-30T00:27:58.619Z,18.20
2023-03-30T00:30:26.071Z,15.30
2023-03-30T00:32:53.936Z,18.73
2023-03-30T00:35:21.150Z,18.03
2023-03-30T00:37:49.682Z,15.20
2023-03-30T00:40:20.234Z,18.13
2023-03-30T00:42:47.485Z,14.37
2023-03-30T00:45:25.736Z,15.07
2023-03-30T00:48:04.792Z,19.57
2023-03-30T00:50:40.694Z,14.10
2023-03-30T00:53:12.845Z,16.00
2023-03-30T00:55:41.392Z,20.70
2023-03-30T00:58:12.090Z,20.17
2023-03-30T01:00:40.407Z,19.60
2023-03-30T01:03:16.820Z,18.10
2023-03-30T01:05:45.078Z,20.80
2023-03-30T01:08:14.135Z,17.93
2023-03-30T01:10:41.255Z,14.93
2023-03-30T01:13:08.256Z,17.97
2023-03-30T01:15:38.895Z,14.07
2023-03-30T01:18:25.021Z,15.33
2023-03-30T01:21:13.117Z,14.63
2023-03-30T01:23:58.789Z,14.20
2023-03-30T01:27:10.029Z,18.52
2023-03-30T01:29:55.830Z,20.47
2023-03-30T01:35:23.339Z,12.73
2023-03-30T01:38:23.360Z,12.70
2023-03-30T01:41:02.197Z,15.17
2023-03-30T01:43:39.026Z,15.87
2023-03-30T01:46:40.399Z,13.27
2023-03-30T01:49:35.254Z,13.30
2023-03-30T01:52:23.422Z,18.70
2023-03-30T01:55:01.225Z,14.73
2023-03-30T01:58:06.896Z,13.93
2023-03-30T02:00:36.471Z,13.73
2023-03-30T02:03:13.734Z,17.33
2023-03-30T02:05:42.273Z,17.87
2023-03-30T02:08:13.565Z,13.73
2023-03-30T02:10:44.201Z,15.50
2023-03-30T02:13:13.126Z,14.83
2023-03-30T02:15:50.438Z,16.40
2023-03-30T02:18:19.523Z,18.37
2023-03-30T02:20:47.588Z,12.87
2023-03-30T02:23:16.581Z,14.13
2023-03-30T02:25:43.673Z,13.43
2023-03-30T02:28:10.916Z,15.00
2023-03-30T02:30:42.726Z,16.43
2023-03-30T02:33:19.234Z,15.23
2023-03-30T02:35:53.583Z,15.83
2023-03-30T02:38:32.411Z,13.47
2023-03-30T02:41:05.448Z,14.10
2023-03-30T02:43:47.932Z,11.87
2023-03-30T02:46:49.134Z,21.33
2023-03-30T02:49:39.156Z,12.47
2023-03-30T02:52:23.241Z,14.13
2023-03-30T02:55:05.066Z,18.43
2023-03-30T02:58:16.328Z,11.63
2023-03-30T03:00:53.745Z,15.03
2023-03-30T03:03:25.536Z,14.57
2023-03-30T03:05:54.098Z,17.70
2023-03-30T03:08:25.523Z,11.97
2023-03-30T03:10:52.571Z,15.40
2023-03-30T03:13:22.179Z,13.77
2023-03-30T03:15:49.824Z,13.87
2023-03-30T03:18:16.823Z,14.17
2023-03-30T03:20:43.764Z,14.77
2023-03-30T03:23:10.947Z,14.97
2023-03-30T03:25:37.816Z,10.97
2023-03-30T03:28:05.036Z,14.50
2023-03-30T03:30:32.146Z,16.57
2023-03-30T03:32:59.046Z,13.73
2023-03-30T03:35:25.922Z,15.90
2023-03-30T03:37:52.881Z,15.60
2023-03-30T03:40:20.249Z,16.17
2023-03-30T03:42:47.403Z,15.07
2023-03-30T03:45:14.514Z,13.43
2023-03-30T03:47:41.589Z,14.07
2023-03-30T03:50:10.103Z,13.60
2023-03-30T03:52:37.589Z,13.67
2023-03-30T03:55:05.308Z,15.03
2023-03-30T03:57:32.309Z,13.50
2023-03-30T04:00:00.045Z,14.27
2023-03-30T04:02:28.044Z,13.13
2023-03-30T04:04:55.850Z,14.30
2023-03-30T04:07:25.629Z,15.10
2023-03-30T04:09:52.616Z,15.13
2023-03-30T04:12:20.420Z,17.37
2023-03-30T04:14:47.452Z,16.87
2023-03-30T04:17:15.032Z,20.97
2023-03-30T04:19:42.186Z,17.30
2023-03-30T04:22:09.365Z,17.77
2023-03-30T04:24:36.379Z,17.63
2023-03-30T04:27:03.957Z,17.57
2023-03-30T04:29:31.124Z,17.80
2023-03-30T04:32:03.001Z,15.13
2023-03-30T04:34:31.284Z,20.03
2023-03-30T04:36:58.357Z,19.60
2023-03-30T04:39:30.504Z,15.67
2023-03-30T04:41:57.473Z,22.20
2023-03-30T04:44:24.423Z,17.23
2023-03-30T04:46:51.245Z,18.93
2023-03-30T04:49:18.145Z,17.40
2023-03-30T04:51:45.046Z,18.53
2023-03-30T04:54:12.032Z,19.63
2023-03-30T04:56:39.011Z,19.37
2023-03-30T04:59:06.179Z,15.77
2023-03-30T05:01:33.564Z,17.30
2023-03-30T05:04:00.625Z,16.73
2023-03-30T05:06:27.527Z,15.77
2023-03-30T05:08:54.440Z,18.57
2023-03-30T05:11:21.302Z,15.80
2023-03-30T05:13:50.793Z,17.50
2023-03-30T05:16:17.743Z,14.40
2023-03-30T05:18:44.826Z,20.30
2023-03-30T05:21:11.996Z,17.00
2023-03-30T05:23:39.802Z,19.23
2023-03-30T05:26:07.592Z,18.47
2023-03-30T05:28:34.883Z,17.50
2023-03-30T05:31:02.531Z,16.63
2023-03-30T05:33:29.720Z,17.73
2023-03-30T05:35:56.978Z,17.60
2023-03-30T05:38:23.950Z,19.20
2023-03-30T05:40:54.767Z,19.50
2023-03-30T05:43:21.909Z,19.37
2023-03-30T05:45:49.205Z,54.13
2023-03-30T05:48:16.416Z,224.57
2023-03-30T05:50:43.265Z,27.93
2023-03-30T05:53:11.034Z,31.97
2023-03-30T05:55:38.266Z,62.33
2023-03-30T05:58:05.331Z,42.20
2023-03-30T06:00:36.870Z,54.27
2023-03-30T06:03:04.765Z,46.90
2023-03-30T06:05:33.938Z,43.70
2023-03-30T06:08:01.098Z,31.60
2023-03-30T06:10:29.317Z,28.50
2023-03-30T06:12:56.479Z,90.00
2023-03-30T06:15:23.698Z,75.07
2023-03-30T06:17:52.333Z,41.53
2023-03-30T06:20:21.770Z,43.17
2023-03-30T06:22:48.995Z,44.10
2023-03-30T06:25:16.957Z,45.93
2023-03-30T06:27:45.009Z,29.37
2023-03-30T06:30:12.489Z,24.23
2023-03-30T06:32:39.427Z,22.47
2023-03-30T06:35:06.745Z,36.40
2023-03-30T06:37:36.344Z,23.77
2023-03-30T06:40:13.551Z,52.67
2023-03-30T06:42:41.955Z,36.37
2023-03-30T06:45:09.273Z,24.23
2023-03-30T06:47:36.926Z,18.63
2023-03-30T06:50:04.821Z,24.03
2023-03-30T06:52:35.751Z,20.27
2023-03-30T06:55:03.027Z,21.20
2023-03-30T06:57:30.234Z,25.67
2023-03-30T06:59:57.842Z,18.43
2023-03-30T07:02:25.857Z,22.00
2023-03-30T07:04:52.938Z,19.57
2023-03-30T07:07:19.988Z,18.00
2023-03-30T07:09:46.924Z,21.30
2023-03-30T07:12:13.831Z,19.87
2023-03-30T07:14:41.044Z,19.77
2023-03-30T07:17:08.703Z,19.40
2023-03-30T07:19:36.713Z,18.60
2023-03-30T07:22:04.244Z,20.37
2023-03-30T07:24:31.573Z,19.37
2023-03-30T07:26:58.430Z,21.37
2023-03-30T07:29:27.286Z,23.60
2023-03-30T07:31:56.801Z,21.13
2023-03-30T07:34:24.172Z,20.67
2023-03-30T07:36:51.125Z,23.50
2023-03-30T07:39:18.024Z,23.87
2023-03-30T07:41:45.050Z,22.80
2023-03-30T07:44:12.037Z,20.13
2023-03-30T07:46:39.308Z,21.63
2023-03-30T07:49:06.284Z,25.93
2023-03-30T07:51:33.500Z,24.73
2023-03-30T07:54:00.940Z,27.60
2023-03-30T07:56:27.848Z,23.33
2023-03-30T07:58:54.886Z,21.37
2023-03-30T08:01:21.855Z,22.07
2023-03-30T08:03:49.328Z,21.07
2023-03-30T08:06:16.308Z,23.27
2023-03-30T08:08:43.652Z,18.63
2023-03-30T08:11:11.376Z,23.80
2023-03-30T08:13:38.464Z,23.93
2023-03-30T08:16:05.916Z,22.17
2023-03-30T08:18:32.849Z,23.10
2023-03-30T08:20:59.925Z,22.27
2023-03-30T08:23:27.167Z,22.97
2023-03-30T08:25:57.536Z,21.93
2023-03-30T08:28:24.906Z,29.53
2023-03-30T08:30:52.201Z,22.10
2023-03-30T08:33:19.528Z,27.53
2023-03-30T08:35:47.956Z,21.37
2023-03-30T08:38:19.332Z,19.83
2023-03-30T08:40:48.985Z,22.63
2023-03-30T08:43:22.798Z,21.43
2023-03-30T08:48:22.024Z,23.70
2023-03-30T08:51:01.301Z,26.70
2023-03-30T08:53:30.680Z,25.40
2023-03-30T08:56:14.132Z,26.73
2023-03-30T08:59:16.391Z,25.13
2023-03-30T09:01:54.364Z,24.60
2023-03-30T09:04:40.855Z,22.80
2023-03-30T09:07:17.303Z,23.57
2023-03-30T09:09:49.088Z,23.00
2023-03-30T09:12:25.255Z,24.67
2023-03-30T09:14:59.825Z,24.03
2023-03-30T09:17:32.648Z,25.30
2023-03-30T09:20:12.285Z,21.60
2023-03-30T09:22:42.402Z,24.37
2023-03-30T09:25:28.683Z,21.40
2023-03-30T09:28:07.352Z,21.57
2023-03-30T09:30:43.476Z,21.00
2023-03-30T09:33:29.530Z,19.97
2023-03-30T09:36:10.909Z,21.40
2023-03-30T09:38:42.201Z,19.07
2023-03-30T09:41:18.342Z,19.93
2023-03-30T09:43:46.467Z,20.23
2023-03-30T09:46:15.437Z,20.73
2023-03-30T09:48:47.892Z,20.47
2023-03-30T09:51:29.227Z,21.57
2023-03-30T09:54:06.648Z,21.73
2023-03-30T09:56:45.038Z,17.93
2023-03-30T09:59:30.685Z,21.47
2023-03-30T10:04:55.268Z,18.77
2023-03-30T10:07:33.141Z,19.33
2023-03-30T10:10:13.304Z,22.00
2023-03-30T10:12:40.323Z,17.70
2023-03-30T10:15:14.730Z,25.17
2023-03-30T10:17:41.886Z,26.13
2023-03-30T10:20:37.257Z,24.23
2023-03-30T10:23:12.495Z,21.92
2023-03-30T10:28:21.882Z,19.73
2023-03-30T10:30:55.732Z,22.47
2023-03-30T10:33:23.822Z,22.60
2023-03-30T10:35:56.525Z,17.87
2023-03-30T10:38:24.595Z,21.47
2023-03-30T10:41:02.799Z,17.47
2023-03-30T10:43:34.816Z,16.00
2023-03-30T10:46:30.035Z,14.23
2023-03-30T10:48:59.981Z,15.07
2023-03-30T10:51:56.929Z,18.70
2023-03-30T10:54:51.609Z,17.67
2023-03-30T10:57:22.027Z,13.80
2023-03-30T11:00:09.965Z,16.57
2023-03-30T11:03:09.315Z,15.23
2023-03-30T11:05:44.621Z,16.73
2023-03-30T11:10:52.606Z,17.90
2023-03-30T11:13:30.742Z,19.47
2023-03-30T11:16:04.308Z,20.47
2023-03-30T11:19:04.114Z,20.10
2023-03-30T11:21:34.348Z,16.43
2023-03-30T11:24:18.709Z,17.30
2023-03-30T11:27:01.412Z,22.20
2023-03-30T11:29:53.973Z,17.87
2023-03-30T11:32:30.011Z,15.77
2023-03-30T11:35:15.765Z,16.33
2023-03-30T11:38:01.418Z,15.40
2023-03-30T11:42:57.646Z,18.53
2023-03-30T11:45:30.356Z,20.63
2023-03-30T11:47:57.757Z,17.40
2023-03-30T11:50:45.911Z,17.80
2023-03-30T11:53:45.413Z,18.10
2023-03-30T11:56:27.964Z,16.93
2023-03-30T11:59:09.202Z,17.83
2023-03-30T12:02:05.490Z,17.47
2023-03-30T12:04:47.624Z,16.97
2023-03-30T12:07:40.156Z,18.57
2023-03-30T12:10:39.164Z,17.23
2023-03-30T12:13:08.607Z,16.50
2023-03-30T12:16:00.491Z,16.50
2023-03-30T12:19:03.897Z,16.77
2023-03-30T12:21:40.850Z,15.80
2023-03-30T12:24:28.497Z,15.33
2023-03-30T12:27:05.514Z,15.07
2023-03-30T12:32:31.052Z,15.73
2023-03-30T12:34:58.752Z,18.83
2023-03-30T12:37:48.260Z,15.90
2023-03-30T12:40:22.414Z,19.07
2023-03-30T12:43:14.526Z,20.25
2023-03-30T12:46:10.809Z,21.70
2023-03-30T12:48:44.579Z,18.50
2023-03-30T12:51:32.040Z,21.33
2023-03-30T12:54:11.150Z,24.00
2023-03-30T12:56:39.598Z,23.97
2023-03-30T12:59:24.426Z,19.90
2023-03-30T13:02:28.998Z,23.85
2023-03-30T13:04:56.750Z,23.73
2023-03-30T13:07:27.311Z,22.67
2023-03-30T13:09:59.405Z,21.53
2023-03-30T13:12:38.235Z,19.60
2023-03-30T13:15:17.391Z,21.30
2023-03-30T13:18:03.936Z,22.03
2023-03-30T13:20:55.745Z,24.43
2023-03-30T13:23:22.898Z,21.87
2023-03-30T13:26:24.898Z,21.50
2023-03-30T13:29:08.631Z,25.27
2023-03-30T13:32:06.291Z,24.48
2023-03-30T13:35:07.250Z,20.97
2023-03-30T13:37:34.848Z,24.73
2023-03-30T13:40:38.542Z,26.13
2023-03-30T13:43:28.659Z,23.90
2023-03-30T13:46:13.302Z,28.77
2023-03-30T13:48:49.281Z,25.83
2023-03-30T13:51:21.163Z,25.23
2023-03-30T13:54:14.444Z,29.00
2023-03-30T13:56:47.279Z,29.07
2023-03-30T13:59:23.734Z,30.70
2023-03-30T14:01:56.623Z,28.87
2023-03-30T14:04:29.211Z,29.73
2023-03-30T14:06:58.625Z,30.47
2023-03-30T14:09:28.081Z,30.30
2023-03-30T14:12:00.755Z,30.10
2023-03-30T14:14:43.707Z,30.67
2023-03-30T14:17:23.151Z,28.83
2023-03-30T14:20:21.739Z,30.43
2023-03-30T14:22:50.463Z,34.00
2023-03-30T14:25:26.312Z,32.97
2023-03-30T14:27:53.541Z,38.93
2023-03-30T14:30:24.869Z,32.90
2023-03-30T14:33:23.884Z,39.67
2023-03-30T14:35:59.720Z,36.30
2023-03-30T14:38:31.560Z,37.37
2023-03-30T14:40:58.787Z,36.80
2023-03-30T14:43:29.684Z,42.03
2023-03-30T14:45:59.443Z,36.00
2023-03-30T14:48:44.507Z,42.23
2023-03-30T14:51:26.044Z,36.90
2023-03-30T14:53:54.764Z,37.30
2023-03-30T14:56:23.026Z,37.20
2023-03-30T14:58:52.125Z,35.20
2023-03-30T15:01:32.346Z,37.87
2023-03-30T15:04:11.154Z,37.07
2023-03-30T15:06:38.787Z,33.47
2023-03-30T15:09:13.480Z,37.93
2023-03-30T15:11:41.165Z,36.42
2023-03-30T15:14:10.869Z,36.47
2023-03-30T15:16:38.703Z,36.53
2023-03-30T15:19:30.624Z,33.50
2023-03-30T15:22:04.860Z,35.10
2023-03-30T15:24:34.724Z,31.87
2023-03-30T15:27:06.101Z,35.93
2023-03-30T15:29:34.033Z,31.90
2023-03-30T15:32:07.538Z,34.10
2023-03-30T15:34:34.609Z,32.63
2023-03-30T15:37:01.954Z,33.63
2023-03-30T15:39:36.745Z,34.10
2023-03-30T15:42:06.136Z,30.52
2023-03-30T15:44:38.382Z,35.43
2023-03-30T15:47:13.386Z,36.23
2023-03-30T15:49:42.296Z,33.33
2023-03-30T15:52:16.970Z,34.93
2023-03-30T15:54:48.447Z,32.03
2023-03-30T15:57:27.366Z,31.13
2023-03-30T16:00:00.982Z,33.47
2023-03-30T16:02:47.259Z,34.57
2023-03-30T16:05:23.634Z,31.17
2023-03-30T16:07:50.658Z,31.60
2023-03-30T16:10:30.326Z,35.03
2023-03-30T16:12:59.118Z,36.90
2023-03-30T16:15:32.087Z,35.10
2023-03-30T16:17:59.499Z,41.20
2023-03-30T16:20:32.087Z,33.90
2023-03-30T16:22:59.739Z,34.87
2023-03-30T16:25:34.475Z,33.80
2023-03-30T16:28:16.383Z,33.67
2023-03-30T16:30:46.252Z,33.93
2023-03-30T16:33:13.415Z,36.03
2023-03-30T16:35:43.553Z,36.03
2023-03-30T16:38:18.011Z,33.67
2023-03-30T16:40:54.462Z,38.22
2023-03-30T16:43:21.335Z,36.60
2023-03-30T16:45:48.297Z,36.00
2023-03-30T16:48:17.996Z,36.23
2023-03-30T16:50:47.544Z,38.70
2023-03-30T16:53:14.516Z,33.20
2023-03-30T16:55:41.717Z,35.87
2023-03-30T16:58:13.882Z,32.60
2023-03-30T17:00:48.064Z,35.47
2023-03-30T17:03:15.671Z,31.30
2023-03-30T17:05:48.861Z,34.53
2023-03-30T17:08:25.205Z,36.03
2023-03-30T17:10:55.033Z,36.47
2023-03-30T17:13:22.259Z,34.87
2023-03-30T17:15:49.182Z,44.60
2023-03-30T17:18:24.013Z,36.13
2023-03-30T17:20:53.566Z,32.17
2023-03-30T17:23:22.361Z,37.43
2023-03-30T17:25:49.860Z,35.70
2023-03-30T17:28:22.003Z,37.60
2023-03-30T17:30:50.609Z,36.37
2023-03-30T17:33:17.825Z,36.57
2023-03-30T17:35:48.585Z,39.57
2023-03-30T17:38:16.171Z,40.30
2023-03-30T17:40:44.635Z,36.83
2023-03-30T17:43:12.271Z,37.00
2023-03-30T17:45:40.329Z,36.93
2023-03-30T17:48:12.495Z,41.10
2023-03-30T17:50:43.680Z,34.53
2023-03-30T17:53:13.415Z,39.53
2023-03-30T17:55:41.073Z,39.73
2023-03-30T17:58:26.499Z,38.63
2023-03-30T18:00:53.795Z,40.95
2023-03-30T18:03:22.353Z,40.57
2023-03-30T18:05:50.531Z,42.87
2023-03-30T18:08:21.451Z,46.37
2023-03-30T18:10:51.695Z,42.57
2023-03-30T18:13:22.698Z,41.07
2023-03-30T18:15:52.042Z,42.53
2023-03-30T18:18:25.040Z,40.53
2023-03-30T18:20:56.326Z,44.13
2023-03-30T18:23:23.775Z,39.27
2023-03-30T18:25:51.006Z,39.43
2023-03-30T18:28:22.719Z,40.40
2023-03-30T18:30:51.164Z,45.37
2023-03-30T18:33:18.287Z,43.17
2023-03-30T18:35:47.667Z,42.87
2023-03-30T18:38:18.045Z,48.13
2023-03-30T18:40:49.500Z,42.40
2023-03-30T18:43:16.950Z,43.70
2023-03-30T18:45:49.653Z,40.93
2023-03-30T18:48:21.746Z,48.37
2023-03-30T18:50:50.845Z,43.63
2023-03-30T18:53:20.179Z,45.97
2023-03-30T18:55:49.360Z,48.03
2023-03-30T18:58:22.082Z,44.53
2023-03-30T19:00:50.882Z,44.90
2023-03-30T19:03:18.960Z,44.10
2023-03-30T19:05:46.810Z,101.13
2023-03-30T19:08:19.288Z,92.13
2023-03-30T19:10:48.171Z,81.67
2023-03-30T19:13:17.248Z,45.67
2023-03-30T19:15:45.835Z,46.30
2023-03-30T19:18:14.179Z,51.17
2023-03-30T19:20:42.289Z,88.67
2023-03-30T19:23:12.743Z,53.60
2023-03-30T19:25:39.912Z,76.43
2023-03-30T19:28:07.750Z,96.73
2023-03-30T19:30:39.271Z,71.73
2023-03-30T19:33:09.794Z,65.87
2023-03-30T19:35:36.970Z,53.87
2023-03-30T19:38:04.480Z,51.97
2023-03-30T19:40:31.362Z,44.77
2023-03-30T19:42:58.268Z,39.77
2023-03-30T19:45:25.257Z,48.47
2023-03-30T19:47:52.356Z,49.27
2023-03-30T19:50:23.282Z,45.50
2023-03-30T19:52:51.442Z,49.77
2023-03-30T19:55:19.637Z,44.33
2023-03-30T19:57:46.962Z,42.37
2023-03-30T20:00:16.413Z,46.20
2023-03-30T20:02:46.655Z,38.57
2023-03-30T20:05:15.740Z,40.97
2023-03-30T20:07:44.383Z,38.60
2023-03-30T20:10:14.972Z,32.33
2023-03-30T20:12:41.951Z,32.00
2023-03-30T20:15:09.793Z,30.00
2023-03-30T20:17:38.491Z,36.00
2023-03-30T20:20:09.357Z,30.27
2023-03-30T20:22:38.491Z,31.77
2023-03-30T20:25:07.900Z,29.03
2023-03-30T20:27:36.253Z,29.17
2023-03-30T20:30:05.287Z,25.87
2023-03-30T20:32:33.412Z,31.93
2023-03-30T20:35:00.393Z,28.37
2023-03-30T20:37:27.284Z,31.80
2023-03-30T20:39:54.476Z,33.57
2023-03-30T20:42:26.366Z,31.53
2023-03-30T20:44:53.707Z,34.67
2023-03-30T20:47:26.191Z,34.23
2023-03-30T20:49:56.256Z,34.67
2023-03-30T20:52:24.023Z,31.50
2023-03-30T20:54:52.515Z,33.87
2023-03-30T20:57:20.685Z,32.27
2023-03-30T20:59:48.226Z,32.80
2023-03-30T21:02:16.524Z,33.07
2023-03-30T21:04:44.616Z,25.20
2023-03-30T21:07:12.478Z,27.77
2023-03-30T21:09:39.841Z,23.73
2023-03-30T21:12:07.728Z,25.87
2023-03-30T21:14:34.604Z,22.47
2023-03-30T21:17:01.789Z,24.67
2023-03-30T21:19:28.782Z,25.50
2023-03-30T21:21:55.873Z,23.87
2023-03-30T21:24:22.704Z,23.37
2023-03-30T21:26:49.605Z,23.13
2023-03-30T21:29:16.476Z,19.37
2023-03-30T21:31:43.453Z,17.90
2023-03-30T21:34:11.518Z,22.23
2023-03-30T21:36:39.298Z,19.17
2023-03-30T21:39:06.316Z,17.77
2023-03-30T21:41:33.397Z,15.87
2023-03-30T21:44:00.443Z,20.10
2023-03-30T21:46:27.711Z,17.10
2023-03-30T21:48:54.796Z,16.20
2023-03-30T21:51:26.631Z,16.47
2023-03-30T21:53:54.776Z,17.20
2023-03-30T21:56:23.531Z,16.53
2023-03-30T21:58:51.122Z,15.90
2023-03-30T22:01:19.520Z,16.50
2023-03-30T22:03:46.807Z,15.23
2023-03-30T22:06:16.372Z,17.87
2023-03-30T22:08:47.623Z,19.57
2023-03-30T22:11:17.000Z,20.80
2023-03-30T22:13:46.192Z,17.13
2023-03-30T22:16:22.761Z,19.47
2023-03-30T22:18:50.572Z,19.13
2023-03-30T22:21:24.109Z,17.00
2023-03-30T22:23:52.236Z,17.27
2023-03-30T22:26:19.167Z,17.27
2023-03-30T22:28:46.291Z,19.43
2023-03-30T22:31:15.541Z,19.20
2023-03-30T22:33:42.814Z,17.37
2023-03-30T22:36:24.607Z,16.33
2023-03-30T22:38:52.474Z,16.67
2023-03-30T22:41:24.016Z,17.83
2023-03-30T22:43:52.709Z,18.37
2023-03-30T22:46:20.194Z,18.57
2023-03-30T22:48:49.785Z,18.70
2023-03-30T22:51:23.652Z,16.00
2023-03-30T22:53:51.082Z,16.20
2023-03-30T22:56:18.042Z,13.73
2023-03-30T22:58:45.119Z,14.73
2023-03-30T23:01:12.440Z,13.40
2023-03-30T23:03:39.489Z,12.43
2023-03-30T23:06:06.796Z,11.80
2023-03-30T23:08:34.023Z,15.23
2023-03-30T23:11:09.827Z,11.83
2023-03-30T23:13:37.851Z,10.83
2023-03-30T23:16:06.985Z,13.23
2023-03-30T23:18:34.896Z,15.00
2023-03-30T23:21:06.498Z,12.30
2023-03-30T23:23:37.785Z,11.60
2023-03-30T23:26:08.917Z,12.03
2023-03-30T23:28:41.508Z,13.00
2023-03-30T23:31:13.456Z,14.30
2023-03-30T23:33:41.704Z,10.47
2023-03-30T23:36:10.466Z,10.47
2023-03-30T23:38:37.883Z,12.37
2023-03-30T23:41:05.096Z,11.40
2023-03-30T23:43:32.384Z,10.77
2023-03-30T23:45:59.293Z,11.37
2023-03-30T23:48:27.107Z,13.43
2023-03-30T23:50:53.949Z,16.53
2023-03-30T23:53:20.955Z,14.27
2023-03-30T23:55:50.220Z,13.07
